sensor_id;sensor_type;location;lat;lon;timestamp;pressure;altitude;pressure_sealevel;temperature;humidity
9421;BME280;4749;51.398;5.466;2023-12-29T00:01:13;100727.88;;;11.34;100.00
9421;BME280;4749;51.398;5.466;2023-12-29T00:03:40;100705.06;;;11.34;100.00
9421;BME280;4749;51.398;5.466;2023-12-29T00:06:07;100712.97;;;11.36;100.00
9421;BME280;4749;51.398;5.466;2023-12-29T00:08:36;100714.72;;;11.35;100.00
9421;BME280;4749;51.398;5.466;2023-12-29T00:11:03;100711.19;;;11.35;100.00
9421;BME280;4749;51.398;5.466;2023-12-29T00:13:31;100707.69;;;11.34;100.00
9421;BME280;4749;51.398;5.466;2023-12-29T00:15:58;100725.25;;;11.34;100.00
9421;BME280;4749;51.398;5.466;2023-12-29T00:18:26;100706.81;;;11.34;100.00
9421;BME280;4749;51.398;5.466;2023-12-29T00:20:53;100698.03;;;11.33;100.00
9421;BME280;4749;51.398;5.466;2023-12-29T00:23:33;100706.81;;;11.34;100.00
9421;BME280;4749;51.398;5.466;2023-12-29T00:26:00;100702.41;;;11.34;100.00
9421;BME280;4749;51.398;5.466;2023-12-29T00:28:27;100694.53;;;11.33;100.00
9421;BME280;4749;51.398;5.466;2023-12-29T00:30:54;100700.66;;;11.35;100.00
9421;BME280;4749;51.398;5.466;2023-12-29T00:33:28;100681.38;;;11.34;100.00
9421;BME280;4749;51.398;5.466;2023-12-29T00:35:57;100677.88;;;11.35;100.00
9421;BME280;4749;51.398;5.466;2023-12-29T00:38:27;100684.88;;;11.35;100.00
9421;BME280;4749;51.398;5.466;2023-12-29T00:40:55;100677.88;;;11.35;100.00
9421;BME280;4749;51.398;5.466;2023-12-29T00:43:22;100681.38;;;11.34;100.00
9421;BME280;4749;51.398;5.466;2023-12-29T00:45:50;100659.47;;;11.35;100.00
9421;BME280;4749;51.398;5.466;2023-12-29T00:48:17;100646.31;;;11.35;100.00
9421;BME280;4749;51.398;5.466;2023-12-29T00:50:45;100655.06;;;11.34;100.00
9421;BME280;4749;51.398;5.466;2023-12-29T00:53:12;100650.66;;;11.35;100.00
9421;BME280;4749;51.398;5.466;2023-12-29T00:55:39;100652.44;;;11.33;100.00
9421;BME280;4749;51.398;5.466;2023-12-29T00:58:06;100666.47;;;11.32;100.00
9421;BME280;4749;51.398;5.466;2023-12-29T01:00:33;100674.38;;;11.32;100.00
9421;BME280;4749;51.398;5.466;2023-12-29T01:03:01;100670.88;;;11.26;100.00
9421;BME280;4749;51.398;5.466;2023-12-29T01:05:28;100663.88;;;11.16;100.00
9421;BME280;4749;51.398;5.466;2023-12-29T01:07:55;100666.56;;;11.04;100.00
9421;BME280;4749;51.398;5.466;2023-12-29T01:10:22;100660.41;;;10.93;100.00
9421;BME280;4749;51.398;5.466;2023-12-29T01:12:50;100676.22;;;10.82;100.00
9421;BME280;4749;51.398;5.466;2023-12-29T01:15:17;100675.34;;;10.71;100.00
9421;BME280;4749;51.398;5.466;2023-12-29T01:17:44;100660.47;;;10.65;100.00
9421;BME280;4749;51.398;5.466;2023-12-29T01:20:12;100666.59;;;10.58;100.00
9421;BME280;4749;51.398;5.466;2023-12-29T01:22:39;100675.38;;;10.51;100.00
9421;BME280;4749;51.398;5.466;2023-12-29T01:25:06;100682.38;;;10.43;100.00
9421;BME280;4749;51.398;5.466;2023-12-29T01:27:33;100681.47;;;10.39;100.00
9421;BME280;4749;51.398;5.466;2023-12-29T01:30:01;100672.72;;;10.36;100.00
9421;BME280;4749;51.398;5.466;2023-12-29T01:32:28;100670.97;;;10.32;100.00
9421;BME280;4749;51.398;5.466;2023-12-29T01:34:55;100680.59;;;10.30;100.00
9421;BME280;4749;51.398;5.466;2023-12-29T01:37:22;100686.75;;;10.27;100.00
9421;BME280;4749;51.398;5.466;2023-12-29T01:39:49;100690.25;;;10.26;100.00
9421;BME280;4749;51.398;5.466;2023-12-29T01:42:16;100683.22;;;10.24;100.00
9421;BME280;4749;51.398;5.466;2023-12-29T01:44:43;100675.31;;;10.21;100.00
9421;BME280;4749;51.398;5.466;2023-12-29T01:47:15;100674.44;;;10.19;100.00
9421;BME280;4749;51.398;5.466;2023-12-29T01:49:47;100657.75;;;10.16;100.00
9421;BME280;4749;51.398;5.466;2023-12-29T01:52:18;100670.03;;;10.14;100.00
9421;BME280;4749;51.398;5.466;2023-12-29T01:54:49;100661.28;;;10.11;100.00
9421;BME280;4749;51.398;5.466;2023-12-29T01:57:17;100658.66;;;10.11;100.00
9421;BME280;4749;51.398;5.466;2023-12-29T01:59:45;100649.03;;;10.10;100.00
9421;BME280;4749;51.398;5.466;2023-12-29T02:02:13;100658.66;;;10.09;100.00
9421;BME280;4749;51.398;5.466;2023-12-29T02:04:40;100649.88;;;10.07;100.00
9421;BME280;4749;51.398;5.466;2023-12-29T02:07:08;100642.00;;;10.07;100.00
9421;BME280;4749;51.398;5.466;2023-12-29T02:09:36;100658.63;;;10.08;100.00
9421;BME280;4749;51.398;5.466;2023-12-29T02:12:05;100647.25;;;10.07;100.00
9421;BME280;4749;51.398;5.466;2023-12-29T02:14:32;100646.38;;;10.08;100.00
9421;BME280;4749;51.398;5.466;2023-12-29T02:17:10;100636.78;;;10.10;100.00
9421;BME280;4749;51.398;5.466;2023-12-29T02:19:45;100656.03;;;10.12;100.00
9421;BME280;4749;51.398;5.466;2023-12-29T02:22:14;100661.28;;;10.14;100.00
9421;BME280;4749;51.398;5.466;2023-12-29T02:24:59;100666.53;;;10.17;100.00
9421;BME280;4749;51.398;5.466;2023-12-29T02:27:48;100658.66;;;10.20;100.00
9421;BME280;4749;51.398;5.466;2023-12-29T02:30:45;100656.06;;;10.23;100.00
9421;BME280;4749;51.398;5.466;2023-12-29T02:33:20;100659.59;;;10.27;100.00
9421;BME280;4749;51.398;5.466;2023-12-29T02:35:52;100658.69;;;10.31;100.00
9421;BME280;4749;51.398;5.466;2023-12-29T02:38:20;100651.72;;;10.34;100.00
9421;BME280;4749;51.398;5.466;2023-12-29T02:40:47;100657.84;;;10.38;100.00
9421;BME280;4749;51.398;5.466;2023-12-29T02:43:14;100655.19;;;10.41;100.00
9421;BME280;4749;51.398;5.466;2023-12-29T02:45:41;100635.06;;;10.45;100.00
9421;BME280;4749;51.398;5.466;2023-12-29T02:48:09;100662.22;;;10.48;100.00
9421;BME280;4749;51.398;5.466;2023-12-29T02:50:36;100665.72;;;10.50;100.00
9421;BME280;4749;51.398;5.466;2023-12-29T02:53:04;100661.34;;;10.54;100.00
9421;BME280;4749;51.398;5.466;2023-12-29T02:55:31;100659.59;;;10.56;100.00
9421;BME280;4749;51.398;5.466;2023-12-29T02:57:58;100642.06;;;10.56;100.00
9421;BME280;4749;51.398;5.466;2023-12-29T03:00:26;100656.94;;;10.59;100.00
9421;BME280;4749;51.398;5.466;2023-12-29T03:02:53;100664.84;;;10.59;100.00
9421;BME280;4749;51.398;5.466;2023-12-29T03:05:20;100656.06;;;10.58;100.00
9421;BME280;4749;51.398;5.466;2023-12-29T03:07:47;100650.84;;;10.60;100.00
9421;BME280;4749;51.398;5.466;2023-12-29T03:10:14;100648.19;;;10.58;100.00
9421;BME280;4749;51.398;5.466;2023-12-29T03:12:42;100635.03;;;10.58;100.00
9421;BME280;4749;51.398;5.466;2023-12-29T03:15:09;100636.78;;;10.59;100.00
9421;BME280;4749;51.398;5.466;2023-12-29T03:17:36;100636.78;;;10.59;100.00
9421;BME280;4749;51.398;5.466;2023-12-29T03:20:04;100630.66;;;10.59;100.00
9421;BME280;4749;51.398;5.466;2023-12-29T03:22:33;100631.53;;;10.59;100.00
9421;BME280;4749;51.398;5.466;2023-12-29T03:25:00;100625.41;;;10.59;100.00
9421;BME280;4749;51.398;5.466;2023-12-29T03:27:27;100624.53;;;10.57;100.00
9421;BME280;4749;51.398;5.466;2023-12-29T03:29:54;100615.75;;;10.59;100.00
9421;BME280;4749;51.398;5.466;2023-12-29T03:32:21;100629.81;;;10.60;100.00
9421;BME280;4749;51.398;5.466;2023-12-29T03:34:48;100634.19;;;10.62;100.00
9421;BME280;4749;51.398;5.466;2023-12-29T03:37:15;100649.06;;;10.63;100.00
9421;BME280;4749;51.398;5.466;2023-12-29T03:39:43;100642.06;;;10.65;100.00
9421;BME280;4749;51.398;5.466;2023-12-29T03:42:10;100637.66;;;10.67;100.00
9421;BME280;4749;51.398;5.466;2023-12-29T03:44:37;100634.19;;;10.70;100.00
9421;BME280;4749;51.398;5.466;2023-12-29T03:47:04;100642.03;;;10.73;100.00
9421;BME280;4749;51.398;5.466;2023-12-29T03:49:32;100647.28;;;10.76;100.00
9421;BME280;4749;51.398;5.466;2023-12-29T03:52:01;100640.31;;;10.77;100.00
9421;BME280;4749;51.398;5.466;2023-12-29T03:54:28;100637.66;;;10.80;100.00
9421;BME280;4749;51.398;5.466;2023-12-29T03:56:55;100637.66;;;10.81;100.00
9421;BME280;4749;51.398;5.466;2023-12-29T03:59:23;100632.41;;;10.81;100.00
9421;BME280;4749;51.398;5.466;2023-12-29T04:01:50;100615.75;;;10.81;100.00
9421;BME280;4749;51.398;5.466;2023-12-29T04:04:17;100617.50;;;10.82;100.00
9421;BME280;4749;51.398;5.466;2023-12-29T04:06:44;100647.28;;;10.84;100.00
9421;BME280;4749;51.398;5.466;2023-12-29T04:09:11;100620.09;;;10.83;100.00
9421;BME280;4749;51.398;5.466;2023-12-29T04:11:38;100624.50;;;10.86;100.00
9421;BME280;4749;51.398;5.466;2023-12-29T04:14:05;100635.03;;;10.87;100.00
9421;BME280;4749;51.398;5.466;2023-12-29T04:16:37;100643.78;;;10.89;100.00
9421;BME280;4749;51.398;5.466;2023-12-29T04:19:05;100640.28;;;10.89;100.00
9421;BME280;4749;51.398;5.466;2023-12-29T04:21:32;100630.63;;;10.88;100.00
9421;BME280;4749;51.398;5.466;2023-12-29T04:24:00;100621.88;;;10.89;100.00
9421;BME280;4749;51.398;5.466;2023-12-29T04:26:27;100632.38;;;10.89;100.00
9421;BME280;4749;51.398;5.466;2023-12-29T04:28:54;100633.28;;;10.88;100.00
9421;BME280;4749;51.398;5.466;2023-12-29T04:31:21;100630.63;;;10.88;100.00
9421;BME280;4749;51.398;5.466;2023-12-29T04:33:48;100628.88;;;10.87;100.00
9421;BME280;4749;51.398;5.466;2023-12-29T04:36:15;100633.28;;;10.86;100.00
9421;BME280;4749;51.398;5.466;2023-12-29T04:38:42;100624.50;;;10.87;100.00
9421;BME280;4749;51.398;5.466;2023-12-29T04:41:12;100635.03;;;10.86;100.00
9421;BME280;4749;51.398;5.466;2023-12-29T04:43:40;100628.88;;;10.84;100.00
9421;BME280;4749;51.398;5.466;2023-12-29T04:46:07;100642.91;;;10.84;100.00
9421;BME280;4749;51.398;5.466;2023-12-29T04:48:34;100626.25;;;10.84;100.00
9421;BME280;4749;51.398;5.466;2023-12-29T04:51:01;100633.28;;;10.82;100.00
9421;BME280;4749;51.398;5.466;2023-12-29T04:53:29;100616.63;;;10.81;100.00
9421;BME280;4749;51.398;5.466;2023-12-29T04:55:56;100621.88;;;10.80;100.00
9421;BME280;4749;51.398;5.466;2023-12-29T04:58:23;100621.00;;;10.79;100.00
9421;BME280;4749;51.398;5.466;2023-12-29T05:00:50;100625.38;;;10.76;100.00
9421;BME280;4749;51.398;5.466;2023-12-29T05:03:17;100617.50;;;10.74;100.00
9421;BME280;4749;51.398;5.466;2023-12-29T05:05:44;100628.03;;;10.74;100.00
9421;BME280;4749;51.398;5.466;2023-12-29T05:08:12;100616.63;;;10.72;100.00
9421;BME280;4749;51.398;5.466;2023-12-29T05:10:39;100625.41;;;10.71;100.00
9421;BME280;4749;51.398;5.466;2023-12-29T05:13:06;100621.91;;;10.72;100.00
9421;BME280;4749;51.398;5.466;2023-12-29T05:15:33;100615.75;;;10.71;100.00
9421;BME280;4749;51.398;5.466;2023-12-29T05:18:00;100623.66;;;10.70;100.00
9421;BME280;4749;51.398;5.466;2023-12-29T05:20:28;100626.28;;;10.71;100.00
9421;BME280;4749;51.398;5.466;2023-12-29T05:22:55;100630.66;;;10.73;100.00
9421;BME280;4749;51.398;5.466;2023-12-29T05:25:22;100627.16;;;10.74;100.00
9421;BME280;4749;51.398;5.466;2023-12-29T05:27:51;100630.66;;;10.74;100.00
9421;BME280;4749;51.398;5.466;2023-12-29T05:30:18;100638.53;;;10.74;100.00
9421;BME280;4749;51.398;5.466;2023-12-29T05:32:45;100633.28;;;10.71;100.00
9421;BME280;4749;51.398;5.466;2023-12-29T05:35:13;100621.03;;;10.70;100.00
9421;BME280;4749;51.398;5.466;2023-12-29T05:37:40;100619.28;;;10.70;100.00
9421;BME280;4749;51.398;5.466;2023-12-29T05:40:07;100616.66;;;10.69;100.00
9421;BME280;4749;51.398;5.466;2023-12-29T05:42:35;100618.41;;;10.70;100.00
9421;BME280;4749;51.398;5.466;2023-12-29T05:45:02;100618.41;;;10.70;100.00
9421;BME280;4749;51.398;5.466;2023-12-29T05:47:30;100609.63;;;10.69;100.00
9421;BME280;4749;51.398;5.466;2023-12-29T05:49:57;100622.78;;;10.68;100.00
9421;BME280;4749;51.398;5.466;2023-12-29T05:52:24;100616.63;;;10.67;100.00
9421;BME280;4749;51.398;5.466;2023-12-29T05:54:52;100605.25;;;10.67;100.00
9421;BME280;4749;51.398;5.466;2023-12-29T05:57:19;100607.88;;;10.67;100.00
9421;BME280;4749;51.398;5.466;2023-12-29T05:59:46;100614.88;;;10.66;100.00
9421;BME280;4749;51.398;5.466;2023-12-29T06:02:13;100615.75;;;10.67;100.00
9421;BME280;4749;51.398;5.466;2023-12-29T06:04:41;100606.13;;;10.69;100.00
9421;BME280;4749;51.398;5.466;2023-12-29T06:07:08;100601.75;;;10.68;100.00
9421;BME280;4749;51.398;5.466;2023-12-29T06:09:36;100605.25;;;10.68;100.00
9421;BME280;4749;51.398;5.466;2023-12-29T06:12:04;100599.13;;;10.71;100.00
9421;BME280;4749;51.398;5.466;2023-12-29T06:14:31;100595.63;;;10.69;100.00
9421;BME280;4749;51.398;5.466;2023-12-29T06:16:58;100596.47;;;10.66;100.00
9421;BME280;4749;51.398;5.466;2023-12-29T06:19:25;100610.50;;;10.65;100.00
9421;BME280;4749;51.398;5.466;2023-12-29T06:21:53;100587.72;;;10.64;100.00
9421;BME280;4749;51.398;5.466;2023-12-29T06:24:20;100580.72;;;10.62;100.00
9421;BME280;4749;51.398;5.466;2023-12-29T06:26:48;100600.88;;;10.63;100.00
9421;BME280;4749;51.398;5.466;2023-12-29T06:29:15;100602.63;;;10.61;100.00
9421;BME280;4749;51.398;5.466;2023-12-29T06:31:42;100601.75;;;10.59;100.00
9421;BME280;4749;51.398;5.466;2023-12-29T06:34:10;100594.75;;;10.56;100.00
9421;BME280;4749;51.398;5.466;2023-12-29T06:36:37;100613.16;;;10.55;100.00
9421;BME280;4749;51.398;5.466;2023-12-29T06:39:04;100612.28;;;10.53;100.00
9421;BME280;4749;51.398;5.466;2023-12-29T06:41:32;100607.03;;;10.51;100.00
9421;BME280;4749;51.398;5.466;2023-12-29T06:43:59;100617.56;;;10.51;100.00
9421;BME280;4749;51.398;5.466;2023-12-29T06:46:27;100628.03;;;10.50;100.00
9421;BME280;4749;51.398;5.466;2023-12-29T06:48:54;100636.78;;;10.50;100.00
9421;BME280;4749;51.398;5.466;2023-12-29T06:51:21;100633.31;;;10.51;100.00
9421;BME280;4749;51.398;5.466;2023-12-29T06:53:50;100623.69;;;10.52;100.00
9421;BME280;4749;51.398;5.466;2023-12-29T06:56:18;100604.41;;;10.53;100.00
9421;BME280;4749;51.398;5.466;2023-12-29T06:58:45;100599.16;;;10.51;100.00
9421;BME280;4749;51.398;5.466;2023-12-29T07:01:13;100600.91;;;10.52;100.00
9421;BME280;4749;51.398;5.466;2023-12-29T07:03:40;100604.41;;;10.54;100.00
9421;BME280;4749;51.398;5.466;2023-12-29T07:06:09;100596.50;;;10.57;100.00
9421;BME280;4749;51.398;5.466;2023-12-29T07:08:37;100594.75;;;10.56;100.00
9421;BME280;4749;51.398;5.466;2023-12-29T07:11:04;100599.97;;;10.59;100.00
9421;BME280;4749;51.398;5.466;2023-12-29T07:13:31;100598.25;;;10.58;100.00
9421;BME280;4749;51.398;5.466;2023-12-29T07:15:58;100593.88;;;10.57;100.00
9421;BME280;4749;51.398;5.466;2023-12-29T07:18:25;100588.59;;;10.57;100.00
9421;BME280;4749;51.398;5.466;2023-12-29T07:20:53;100605.25;;;10.59;100.00
9421;BME280;4749;51.398;5.466;2023-12-29T07:23:20;100590.38;;;10.60;100.00
9421;BME280;4749;51.398;5.466;2023-12-29T07:25:48;100596.50;;;10.60;100.00
9421;BME280;4749;51.398;5.466;2023-12-29T07:28:15;100613.16;;;10.61;100.00
9421;BME280;4749;51.398;5.466;2023-12-29T07:30:42;100614.03;;;10.63;100.00
9421;BME280;4749;51.398;5.466;2023-12-29T07:33:10;100623.66;;;10.62;100.00
9421;BME280;4749;51.398;5.466;2023-12-29T07:35:37;100622.78;;;10.60;100.00
9421;BME280;4749;51.398;5.466;2023-12-29T07:38:04;100621.03;;;10.61;100.00
9421;BME280;4749;51.398;5.466;2023-12-29T07:40:32;100596.47;;;10.59;100.00
9421;BME280;4749;51.398;5.466;2023-12-29T07:42:59;100593.00;;;10.55;100.00
9421;BME280;4749;51.398;5.466;2023-12-29T07:45:26;100579.00;;;10.52;100.00
9421;BME280;4749;51.398;5.466;2023-12-29T07:47:53;100570.22;;;10.47;100.00
9421;BME280;4749;51.398;5.466;2023-12-29T07:50:21;100576.38;;;10.44;100.00
9421;BME280;4749;51.398;5.466;2023-12-29T07:52:48;100578.97;;;10.41;100.00
9421;BME280;4749;51.398;5.466;2023-12-29T07:55:15;100592.16;;;10.42;100.00
9421;BME280;4749;51.398;5.466;2023-12-29T07:57:43;100574.59;;;10.40;100.00
9421;BME280;4749;51.398;5.466;2023-12-29T08:00:12;100588.63;;;10.40;100.00
9421;BME280;4749;51.398;5.466;2023-12-29T08:02:39;100593.88;;;10.40;100.00
9421;BME280;4749;51.398;5.466;2023-12-29T08:05:06;100591.25;;;10.42;100.00
9421;BME280;4749;51.398;5.466;2023-12-29T08:07:37;100581.63;;;10.44;100.00
9421;BME280;4749;51.398;5.466;2023-12-29T08:10:08;100598.25;;;10.48;100.00
9421;BME280;4749;51.398;5.466;2023-12-29T08:12:35;100606.16;;;10.52;100.00
9421;BME280;4749;51.398;5.466;2023-12-29T08:15:03;100629.78;;;10.55;100.00
9421;BME280;4749;51.398;5.466;2023-12-29T08:17:31;100628.91;;;10.56;100.00
9421;BME280;4749;51.398;5.466;2023-12-29T08:19:58;100616.66;;;10.55;100.00
9421;BME280;4749;51.398;5.466;2023-12-29T08:22:29;100618.41;;;10.58;100.00
9421;BME280;4749;51.398;5.466;2023-12-29T08:24:57;100610.50;;;10.58;100.00
9421;BME280;4749;51.398;5.466;2023-12-29T08:27:25;100616.66;;;10.61;100.00
9421;BME280;4749;51.398;5.466;2023-12-29T08:29:53;100618.41;;;10.62;100.00
9421;BME280;4749;51.398;5.466;2023-12-29T08:32:21;100614.03;;;10.63;100.00
9421;BME280;4749;51.398;5.466;2023-12-29T08:34:48;100620.16;;;10.65;100.00
9421;BME280;4749;51.398;5.466;2023-12-29T08:37:16;100616.63;;;10.66;100.00
9421;BME280;4749;51.398;5.466;2023-12-29T08:39:47;100621.91;;;10.64;100.00
9421;BME280;4749;51.398;5.466;2023-12-29T08:42:15;100627.16;;;10.69;100.00
9421;BME280;4749;51.398;5.466;2023-12-29T08:44:43;100638.56;;;10.71;100.00
9421;BME280;4749;51.398;5.466;2023-12-29T08:47:10;100634.16;;;10.73;100.00
9421;BME280;4749;51.398;5.466;2023-12-29T08:49:38;100634.16;;;10.75;100.00
9421;BME280;4749;51.398;5.466;2023-12-29T08:52:05;100633.28;;;10.74;100.00
9421;BME280;4749;51.398;5.466;2023-12-29T08:54:33;100635.03;;;10.74;100.00
9421;BME280;4749;51.398;5.466;2023-12-29T08:57:00;100632.41;;;10.74;100.00
9421;BME280;4749;51.398;5.466;2023-12-29T08:59:27;100637.66;;;10.72;100.00
9421;BME280;4749;51.398;5.466;2023-12-29T09:01:54;100655.22;;;10.70;100.00
9421;BME280;4749;51.398;5.466;2023-12-29T09:04:22;100641.19;;;10.69;100.00
9421;BME280;4749;51.398;5.466;2023-12-29T09:06:49;100640.31;;;10.70;100.00
9421;BME280;4749;51.398;5.466;2023-12-29T09:09:16;100638.56;;;10.71;100.00
9421;BME280;4749;51.398;5.466;2023-12-29T09:11:44;100626.28;;;10.73;100.00
9421;BME280;4749;51.398;5.466;2023-12-29T09:14:12;100615.75;;;10.73;100.00
9421;BME280;4749;51.398;5.466;2023-12-29T09:16:39;100632.41;;;10.72;100.00
9421;BME280;4749;51.398;5.466;2023-12-29T09:19:10;100638.56;;;10.69;100.00
9421;BME280;4749;51.398;5.466;2023-12-29T09:21:40;100637.66;;;10.72;100.00
9421;BME280;4749;51.398;5.466;2023-12-29T09:24:08;100636.78;;;10.73;100.00
9421;BME280;4749;51.398;5.466;2023-12-29T09:26:35;100646.44;;;10.79;100.00
9421;BME280;4749;51.398;5.466;2023-12-29T09:29:02;100651.66;;;10.83;100.00
9421;BME280;4749;51.398;5.466;2023-12-29T09:31:29;100655.19;;;10.85;100.00
9421;BME280;4749;51.398;5.466;2023-12-29T09:33:57;100656.94;;;10.88;100.00
9421;BME280;4749;51.398;5.466;2023-12-29T09:36:24;100656.03;;;10.99;100.00
9421;BME280;4749;51.398;5.466;2023-12-29T09:38:51;100656.00;;;11.09;100.00
9421;BME280;4749;51.398;5.466;2023-12-29T09:41:20;100655.97;;;11.16;100.00
9421;BME280;4749;51.398;5.466;2023-12-29T09:43:49;100644.56;;;11.23;100.00
9421;BME280;4749;51.398;5.466;2023-12-29T09:46:18;100637.50;;;11.33;100.00
9421;BME280;4749;51.398;5.466;2023-12-29T09:48:46;100669.94;;;11.41;100.00
9421;BME280;4749;51.398;5.466;2023-12-29T09:51:15;100649.72;;;11.49;100.00
9421;BME280;4749;51.398;5.466;2023-12-29T09:53:43;100663.75;;;11.51;100.00
9421;BME280;4749;51.398;5.466;2023-12-29T09:56:10;100663.75;;;11.56;100.00
9421;BME280;4749;51.398;5.466;2023-12-29T09:58:41;100658.47;;;11.59;100.00
9421;BME280;4749;51.398;5.466;2023-12-29T10:01:08;100657.59;;;11.62;100.00
9421;BME280;4749;51.398;5.466;2023-12-29T10:03:35;100657.56;;;11.60;100.00
9421;BME280;4749;51.398;5.466;2023-12-29T10:06:06;100660.22;;;11.60;100.00
9421;BME280;4749;51.398;5.466;2023-12-29T10:08:37;100648.81;;;11.60;100.00
9421;BME280;4749;51.398;5.466;2023-12-29T10:11:06;100633.88;;;11.63;100.00
9421;BME280;4749;51.398;5.466;2023-12-29T10:13:35;100639.97;;;11.68;100.00
9421;BME280;4749;51.398;5.466;2023-12-29T10:16:47;100644.34;;;11.74;100.00
9421;BME280;4749;51.398;5.466;2023-12-29T10:19:40;100639.06;;;11.77;100.00
9421;BME280;4749;51.398;5.466;2023-12-29T10:22:24;100646.09;;;11.75;100.00
9421;BME280;4749;51.398;5.466;2023-12-29T10:24:53;100651.41;;;11.72;100.00
9421;BME280;4749;51.398;5.466;2023-12-29T10:27:20;100653.16;;;11.71;100.00
9421;BME280;4749;51.398;5.466;2023-12-29T10:29:47;100657.56;;;11.71;100.00
9421;BME280;4749;51.398;5.466;2023-12-29T10:32:14;100662.78;;;11.75;100.00
9421;BME280;4749;51.398;5.466;2023-12-29T10:34:42;100672.41;;;11.84;100.00
9421;BME280;4749;51.398;5.466;2023-12-29T10:37:09;100670.66;;;11.88;100.00
9421;BME280;4749;51.398;5.466;2023-12-29T10:39:55;100668.91;;;11.90;100.00
9421;BME280;4749;51.398;5.466;2023-12-29T10:42:23;100664.47;;;11.92;100.00
9421;BME280;4749;51.398;5.466;2023-12-29T10:45:09;100675.03;;;11.95;100.00
9421;BME280;4749;51.398;5.466;2023-12-29T10:47:37;100680.28;;;11.96;100.00
9421;BME280;4749;51.398;5.466;2023-12-29T10:50:05;100686.38;;;12.01;100.00
9421;BME280;4749;51.398;5.466;2023-12-29T10:52:33;100681.97;;;12.02;100.00
9421;BME280;4749;51.398;5.466;2023-12-29T10:55:08;100687.22;;;12.11;100.00
9421;BME280;4749;51.398;5.466;2023-12-29T10:57:37;100691.59;;;12.14;100.00
9421;BME280;4749;51.398;5.466;2023-12-29T11:00:06;100685.41;;;12.18;100.00
9421;BME280;4749;51.398;5.466;2023-12-29T11:02:35;100681.00;;;12.23;100.00
9421;BME280;4749;51.398;5.466;2023-12-29T11:05:08;100684.47;;;12.28;100.00
9421;BME280;4749;51.398;5.466;2023-12-29T11:07:40;100681.78;;;12.32;100.00
9421;BME280;4749;51.398;5.466;2023-12-29T11:10:09;100673.88;;;12.34;100.00
9421;BME280;4749;51.398;5.466;2023-12-29T11:12:38;100667.75;;;12.32;100.00
9421;BME280;4749;51.398;5.466;2023-12-29T11:15:07;100680.09;;;12.24;100.00
9421;BME280;4749;51.398;5.466;2023-12-29T11:17:35;100675.78;;;12.10;100.00
9421;BME280;4749;51.398;5.466;2023-12-29T11:20:04;100673.25;;;11.97;100.00
9421;BME280;4749;51.398;5.466;2023-12-29T11:22:32;100687.34;;;11.90;100.00
9421;BME280;4749;51.398;5.466;2023-12-29T11:25:00;100680.31;;;11.84;100.00
9421;BME280;4749;51.398;5.466;2023-12-29T11:27:29;100683.88;;;11.80;100.00
9421;BME280;4749;51.398;5.466;2023-12-29T11:30:03;100677.72;;;11.75;100.00
9421;BME280;4749;51.398;5.466;2023-12-29T11:32:46;100675.97;;;11.71;100.00
9421;BME280;4749;51.398;5.466;2023-12-29T11:35:43;100682.19;;;11.61;100.00
9421;BME280;4749;51.398;5.466;2023-12-29T11:41:40;100669.91;;;11.53;100.00
9421;BME280;4749;51.398;5.466;2023-12-29T11:44:10;100648.88;;;11.49;100.00
9421;BME280;4749;51.398;5.466;2023-12-29T11:46:39;100662.03;;;11.47;100.00
9421;BME280;4749;51.398;5.466;2023-12-29T11:49:10;100659.41;;;11.46;100.00
9421;BME280;4749;51.398;5.466;2023-12-29T11:51:47;100650.69;;;11.36;100.00
9421;BME280;4749;51.398;5.466;2023-12-29T11:54:34;100660.34;;;11.25;100.00
9421;BME280;4749;51.398;5.466;2023-12-29T11:57:01;100654.22;;;11.21;100.00
9421;BME280;4749;51.398;5.466;2023-12-29T11:59:29;100640.19;;;11.18;100.00
9421;BME280;4749;51.398;5.466;2023-12-29T12:01:58;100646.31;;;11.23;100.00
9421;BME280;4749;51.398;5.466;2023-12-29T12:04:39;100636.69;;;11.23;100.00
9421;BME280;4749;51.398;5.466;2023-12-29T12:07:56;100632.28;;;11.27;100.00
9421;BME280;4749;51.398;5.466;2023-12-29T12:12:47;100630.47;;;11.41;100.00
9421;BME280;4749;51.398;5.466;2023-12-29T12:18:05;100624.28;;;11.50;100.00
9421;BME280;4749;51.398;5.466;2023-12-29T12:20:35;100618.16;;;11.48;100.00
9421;BME280;4749;51.398;5.466;2023-12-29T12:23:11;100627.81;;;11.46;100.00
9421;BME280;4749;51.398;5.466;2023-12-29T12:25:42;100627.81;;;11.47;100.00
9421;BME280;4749;51.398;5.466;2023-12-29T12:28:10;100636.56;;;11.51;100.00
9421;BME280;4749;51.398;5.466;2023-12-29T12:30:40;100639.22;;;11.52;100.00
9421;BME280;4749;51.398;5.466;2023-12-29T12:33:08;100620.78;;;11.52;100.00
9421;BME280;4749;51.398;5.466;2023-12-29T12:35:39;100612.91;;;11.48;100.00
9421;BME280;4749;51.398;5.466;2023-12-29T12:38:17;100619.00;;;11.50;100.00
9421;BME280;4749;51.398;5.466;2023-12-29T12:40:49;100609.31;;;11.60;100.00
9421;BME280;4749;51.398;5.466;2023-12-29T12:43:17;100614.56;;;11.60;100.00
9421;BME280;4749;51.398;5.466;2023-12-29T12:45:54;100602.31;;;11.62;100.00
9421;BME280;4749;51.398;5.466;2023-12-29T12:48:29;100599.63;;;11.66;100.00
9421;BME280;4749;51.398;5.466;2023-12-29T12:51:00;100608.44;;;11.62;100.00
9421;BME280;4749;51.398;5.466;2023-12-29T12:53:27;100611.97;;;11.61;100.00
9421;BME280;4749;51.398;5.466;2023-12-29T12:55:54;100600.56;;;11.61;100.00
9421;BME280;4749;51.398;5.466;2023-12-29T12:58:22;100596.16;;;11.63;100.00
9421;BME280;4749;51.398;5.466;2023-12-29T13:00:50;100586.50;;;11.63;100.00
9421;BME280;4749;51.398;5.466;2023-12-29T13:03:22;100588.25;;;11.64;100.00
9421;BME280;4749;51.398;5.466;2023-12-29T13:05:50;100597.00;;;11.66;100.00
9421;BME280;4749;51.398;5.466;2023-12-29T13:08:18;100601.38;;;11.66;100.00
9421;BME280;4749;51.398;5.466;2023-12-29T13:11:00;100597.88;;;11.67;100.00
9421;BME280;4749;51.398;5.466;2023-12-29T13:13:42;100599.56;;;11.77;100.00
9421;BME280;4749;51.398;5.466;2023-12-29T13:16:10;100596.94;;;11.83;100.00
9421;BME280;4749;51.398;5.466;2023-12-29T13:18:39;100589.00;;;11.89;100.00